Terminal Aerodrome Forecast
Issued by NWS Sioux Falls, SD

Home | Current Version | Previous Version | Graphics & Text | Print | Product List | Glossary Off
Versions: 1 2 3 4 5 6 7 8 9 10 11 12 13

096
FTUS43 KFSD 232320
TAFFSD
TAF
KFSD 232320Z 2400/2424 16008KT P6SM VCTS SCT015 BKN025CB
     FM240500 22004KT P6SM BKN070
     FM240800 32008KT P6SM SCT200
     FM242000 32012KT P6SM SCT150=

USA.gov is the U.S. government's official web portal to all federal, state and local government web resources and services.